createdAt,value
2023-01-12T00:00:09.834Z,3.60
2023-01-12T00:00:19.852Z,3.70
2023-01-12T00:00:29.925Z,3.30
2023-01-12T00:00:39.836Z,4.50
2023-01-12T00:00:49.798Z,4.50
2023-01-12T00:00:59.796Z,4.60
2023-01-12T00:01:09.810Z,3.70
2023-01-12T00:01:19.820Z,4.10
2023-01-12T00:01:29.878Z,3.80
2023-01-12T00:01:39.806Z,4.40
2023-01-12T00:01:50.456Z,6.50
2023-01-12T00:01:59.859Z,6.40
2023-01-12T00:02:09.821Z,6.60
2023-01-12T00:02:19.819Z,4.40
2023-01-12T00:02:29.895Z,4.80
2023-01-12T00:02:39.840Z,3.80
2023-01-12T00:02:49.807Z,4.00
2023-01-12T00:02:59.788Z,4.70
2023-01-12T00:03:09.802Z,4.70
2023-01-12T00:03:19.900Z,4.50
2023-01-12T00:03:29.793Z,4.70
2023-01-12T00:03:39.807Z,4.60
2023-01-12T00:03:49.902Z,4.90
2023-01-12T00:03:59.850Z,4.20
2023-01-12T00:04:09.869Z,4.50
2023-01-12T00:04:19.839Z,4.40
2023-01-12T00:04:29.862Z,4.10
2023-01-12T00:04:40.455Z,3.50
2023-01-12T00:04:49.805Z,3.30
2023-01-12T00:04:59.784Z,3.90
2023-01-12T00:05:09.815Z,4.60
2023-01-12T00:05:19.776Z,4.10
2023-01-12T00:05:29.786Z,3.90
2023-01-12T00:05:39.830Z,7.80
2023-01-12T00:05:49.774Z,10.10
2023-01-12T00:05:59.786Z,11.70
2023-01-12T00:06:09.799Z,10.20
2023-01-12T00:06:19.773Z,13.50
2023-01-12T00:06:29.804Z,14.80
2023-01-12T00:06:39.848Z,11.00
2023-01-12T00:06:49.769Z,9.80
2023-01-12T00:06:59.802Z,6.40
2023-01-12T00:07:09.773Z,6.50
2023-01-12T00:07:19.871Z,3.70
2023-01-12T00:07:29.888Z,4.20
2023-01-12T00:07:39.958Z,3.70
2023-01-12T00:07:49.765Z,3.70
2023-01-12T00:07:59.788Z,2.80
2023-01-12T00:08:09.765Z,3.40
2023-01-12T00:08:19.763Z,7.10
2023-01-12T00:08:29.772Z,9.40
2023-01-12T00:08:39.762Z,9.30
2023-01-12T00:08:50.471Z,7.00
2023-01-12T00:08:59.789Z,7.00
2023-01-12T00:09:09.767Z,6.90
2023-01-12T00:09:19.786Z,4.60
2023-01-12T00:09:29.793Z,4.40
2023-01-12T00:09:39.805Z,4.40
2023-01-12T00:09:49.766Z,4.10
2023-01-12T00:09:59.756Z,4.30
2023-01-12T00:10:09.776Z,4.40
2023-01-12T00:10:19.910Z,4.50
2023-01-12T00:10:29.751Z,3.30
2023-01-12T00:10:39.757Z,4.80
2023-01-12T00:10:49.799Z,4.90
2023-01-12T00:10:59.752Z,4.60
2023-01-12T00:11:09.759Z,3.60
2023-01-12T00:11:19.783Z,4.60
2023-01-12T00:11:29.768Z,4.90
2023-01-12T00:11:40.467Z,4.80
2023-01-12T00:11:49.820Z,4.10
2023-01-12T00:11:59.755Z,4.10
2023-01-12T00:12:09.768Z,4.40
2023-01-12T00:12:20.468Z,3.50
2023-01-12T00:12:30.464Z,4.70
2023-01-12T00:12:39.762Z,4.70
2023-01-12T00:12:49.769Z,7.00
2023-01-12T00:12:59.768Z,4.90
2023-01-12T00:13:09.746Z,5.00
2023-01-12T00:13:19.756Z,4.00
2023-01-12T00:13:30.461Z,5.60
2023-01-12T00:13:39.758Z,5.50
2023-01-12T00:13:49.747Z,8.10
2023-01-12T00:13:59.761Z,11.80
2023-01-12T00:14:09.773Z,14.30
2023-01-12T00:14:19.741Z,11.90
2023-01-12T00:14:29.813Z,5.10
2023-01-12T00:14:39.775Z,3.70
2023-01-12T00:14:49.732Z,5.60
2023-01-12T00:14:59.757Z,5.50
2023-01-12T00:15:09.780Z,5.80
2023-01-12T00:15:19.746Z,3.70
2023-01-12T00:15:29.759Z,3.40
2023-01-12T00:15:39.767Z,3.50
2023-01-12T00:15:50.482Z,3.50
2023-01-12T00:15:59.788Z,5.20
2023-01-12T00:16:09.841Z,5.30
2023-01-12T00:16:19.792Z,5.40
2023-01-12T00:16:29.786Z,3.30
2023-01-12T00:16:39.821Z,3.20
2023-01-12T00:16:49.731Z,5.60
2023-01-12T00:16:59.786Z,5.60
2023-01-12T00:17:09.725Z,5.40
2023-01-12T00:17:19.751Z,3.90
2023-01-12T00:17:29.748Z,3.80
2023-01-12T00:17:39.731Z,3.60
2023-01-12T00:17:49.726Z,3.40
2023-01-12T00:17:59.758Z,4.50
2023-01-12T00:18:09.754Z,7.00
2023-01-12T00:18:19.737Z,6.80
2023-01-12T00:18:29.732Z,7.30
2023-01-12T00:18:39.788Z,5.20
2023-01-12T00:18:49.741Z,5.30
2023-01-12T00:18:59.714Z,8.30
2023-01-12T00:19:09.717Z,8.10
2023-01-12T00:19:19.745Z,7.90
2023-01-12T00:19:29.720Z,4.00
2023-01-12T00:19:39.710Z,4.30
2023-01-12T00:19:49.742Z,6.20
2023-01-12T00:19:59.782Z,6.20
2023-01-12T00:20:09.707Z,6.10
2023-01-12T00:20:20.464Z,4.60
2023-01-12T00:20:29.714Z,4.10
2023-01-12T00:20:39.721Z,6.40
2023-01-12T00:20:49.728Z,6.20
2023-01-12T00:20:59.718Z,6.00
2023-01-12T00:21:09.716Z,3.70
2023-01-12T00:21:19.762Z,4.40
2023-01-12T00:21:29.807Z,4.60
2023-01-12T00:21:39.734Z,4.40
2023-01-12T00:21:49.699Z,3.80
2023-01-12T00:21:59.716Z,5.70
2023-01-12T00:22:09.760Z,7.60
2023-01-12T00:22:19.714Z,7.60
2023-01-12T00:22:29.707Z,4.20
2023-01-12T00:22:39.708Z,3.60
2023-01-12T00:22:50.469Z,3.60
2023-01-12T00:22:59.703Z,3.80
2023-01-12T00:23:09.714Z,3.80
2023-01-12T00:23:19.694Z,8.70
2023-01-12T00:23:29.736Z,8.60
2023-01-12T00:23:39.730Z,10.40
2023-01-12T00:23:49.693Z,7.80
2023-01-12T00:23:59.704Z,7.80
2023-01-12T00:24:09.693Z,8.30
2023-01-12T00:24:19.806Z,4.50
2023-01-12T00:24:29.698Z,6.60
2023-01-12T00:24:39.741Z,4.60
2023-01-12T00:24:50.096Z,4.40
2023-01-12T00:24:59.710Z,4.40
2023-01-12T00:25:10.456Z,4.30
2023-01-12T00:25:19.684Z,4.70
2023-01-12T00:25:29.686Z,4.60
2023-01-12T00:25:39.755Z,4.70
2023-01-12T00:25:49.690Z,4.70
2023-01-12T00:25:59.698Z,4.10
2023-01-12T00:26:09.683Z,5.30
2023-01-12T00:26:19.685Z,5.20
2023-01-12T00:26:29.708Z,3.50
2023-01-12T00:26:39.716Z,3.70
2023-01-12T00:26:49.709Z,4.90
2023-01-12T00:26:59.845Z,5.00
2023-01-12T00:27:09.697Z,11.20
2023-01-12T00:27:19.723Z,11.00
2023-01-12T00:27:29.678Z,10.90
2023-01-12T00:27:39.685Z,4.50
2023-01-12T00:27:49.695Z,4.30
2023-01-12T00:27:59.684Z,4.20
2023-01-12T00:28:09.781Z,6.50
2023-01-12T00:28:19.691Z,4.70
2023-01-12T00:28:30.455Z,4.70
2023-01-12T00:28:39.688Z,5.70
2023-01-12T00:28:49.672Z,5.60
2023-01-12T00:28:59.668Z,5.70
2023-01-12T00:29:09.675Z,3.80
2023-01-12T00:29:20.457Z,3.70
2023-01-12T00:29:29.684Z,3.60
2023-01-12T00:29:39.688Z,3.40
2023-01-12T00:29:50.483Z,3.50
2023-01-12T00:29:59.668Z,3.40
2023-01-12T00:30:09.694Z,3.40
2023-01-12T00:30:19.662Z,4.80
2023-01-12T00:30:29.687Z,4.60
2023-01-12T00:30:39.684Z,6.80
2023-01-12T00:30:49.670Z,7.20
2023-01-12T00:30:59.686Z,7.00
2023-01-12T00:31:09.791Z,4.80
2023-01-12T00:31:19.927Z,3.30
2023-01-12T00:31:30.543Z,3.60
2023-01-12T00:31:39.672Z,3.70
2023-01-12T00:31:49.656Z,3.40
2023-01-12T00:31:59.656Z,3.30
2023-01-12T00:32:09.687Z,3.20
2023-01-12T00:32:19.657Z,3.80
2023-01-12T00:32:29.697Z,4.90
2023-01-12T00:32:39.720Z,4.90
2023-01-12T00:32:49.654Z,4.90
2023-01-12T00:32:59.661Z,4.40
2023-01-12T00:33:09.665Z,4.30
2023-01-12T00:33:19.650Z,4.40
2023-01-12T00:33:29.683Z,3.90
2023-01-12T00:33:39.668Z,3.90
2023-01-12T00:33:49.664Z,3.40
2023-01-12T00:33:59.648Z,3.60
2023-01-12T00:34:09.686Z,7.10
2023-01-12T00:34:20.466Z,7.10
2023-01-12T00:34:30.010Z,7.40
2023-01-12T00:34:39.653Z,4.20
2023-01-12T00:34:49.643Z,4.20
2023-01-12T00:34:59.669Z,3.70
2023-01-12T00:35:09.644Z,3.50
2023-01-12T00:35:19.647Z,3.20
2023-01-12T00:35:29.749Z,3.50
2023-01-12T00:35:39.668Z,3.50
2023-01-12T00:35:49.651Z,4.10
2023-01-12T00:35:59.641Z,4.00
2023-01-12T00:36:09.637Z,5.10
2023-01-12T00:36:19.660Z,4.90
2023-01-12T00:36:29.655Z,4.70
2023-01-12T00:36:39.636Z,4.40
2023-01-12T00:36:49.669Z,4.50
2023-01-12T00:36:59.635Z,4.70
2023-01-12T00:37:09.638Z,4.20
2023-01-12T00:37:19.706Z,3.80
2023-01-12T00:37:29.636Z,4.40
2023-01-12T00:37:39.751Z,4.80
2023-01-12T00:37:49.639Z,4.40
2023-01-12T00:37:59.630Z,4.10
2023-01-12T00:38:09.651Z,4.70
2023-01-12T00:38:19.659Z,5.00
2023-01-12T00:38:29.624Z,4.80
2023-01-12T00:38:39.645Z,4.00
2023-01-12T00:38:49.668Z,4.30
2023-01-12T00:38:59.627Z,4.60
2023-01-12T00:39:09.634Z,3.90
2023-01-12T00:39:19.673Z,3.30
2023-01-12T00:39:29.649Z,3.10
2023-01-12T00:39:42.949Z,3.70
2023-01-12T00:40:01.292Z,3.70
2023-01-12T00:40:02.631Z,3.70
2023-01-12T00:40:09.640Z,3.10
2023-01-12T00:40:19.620Z,3.30
2023-01-12T00:40:29.614Z,3.70
2023-01-12T00:40:39.666Z,6.80
2023-01-12T00:40:49.744Z,6.60
2023-01-12T00:40:59.661Z,9.00
2023-01-12T00:41:09.648Z,4.60
2023-01-12T00:41:19.646Z,4.40
2023-01-12T00:41:29.616Z,3.50
2023-01-12T00:41:39.630Z,3.20
2023-01-12T00:41:49.630Z,3.20
2023-01-12T00:41:59.626Z,3.20
2023-01-12T00:42:09.620Z,3.30
2023-01-12T00:42:19.653Z,7.50
2023-01-12T00:42:29.625Z,7.60
2023-01-12T00:42:39.623Z,7.60
2023-01-12T00:42:49.677Z,4.10
2023-01-12T00:42:59.606Z,4.20
2023-01-12T00:43:09.733Z,4.40
2023-01-12T00:43:19.613Z,4.00
2023-01-12T00:43:29.615Z,3.70
2023-01-12T00:43:39.630Z,6.40
2023-01-12T00:43:49.634Z,6.20
2023-01-12T00:43:59.615Z,5.90
2023-01-12T00:44:09.683Z,2.60
2023-01-12T00:44:19.697Z,2.90
2023-01-12T00:44:29.620Z,3.30
2023-01-12T00:44:39.597Z,5.30
2023-01-12T00:44:49.606Z,4.90
2023-01-12T00:44:59.635Z,4.80
2023-01-12T00:45:09.599Z,3.50
2023-01-12T00:45:19.604Z,3.80
2023-01-12T00:45:30.499Z,3.40
2023-01-12T00:45:39.598Z,4.40
2023-01-12T00:45:49.698Z,6.50
2023-01-12T00:45:59.639Z,6.50
2023-01-12T00:46:09.741Z,4.30
2023-01-12T00:46:20.602Z,2.90
2023-01-12T00:46:29.736Z,5.30
2023-01-12T00:46:39.653Z,9.80
2023-01-12T00:46:49.618Z,10.10
2023-01-12T00:46:59.603Z,6.80
2023-01-12T00:47:09.616Z,5.10
2023-01-12T00:47:19.614Z,4.90
2023-01-12T00:47:29.604Z,4.90
2023-01-12T00:47:39.589Z,3.10
2023-01-12T00:47:49.611Z,3.50
2023-01-12T00:47:59.663Z,3.80
2023-01-12T00:48:10.500Z,4.10
2023-01-12T00:48:19.594Z,3.60
2023-01-12T00:48:29.582Z,3.70
2023-01-12T00:48:39.599Z,5.10
2023-01-12T00:48:49.624Z,7.30
2023-01-12T00:48:59.582Z,7.10
2023-01-12T00:49:09.583Z,4.00
2023-01-12T00:49:19.585Z,3.90
2023-01-12T00:49:29.583Z,4.00
2023-01-12T00:49:39.587Z,4.20
2023-01-12T00:49:49.607Z,2.90
2023-01-12T00:49:59.676Z,2.40
2023-01-12T00:50:09.600Z,2.50
2023-01-12T00:50:19.906Z,2.80
2023-01-12T00:50:29.619Z,3.20
2023-01-12T00:50:39.603Z,3.00
2023-01-12T00:50:49.580Z,3.10
2023-01-12T00:50:59.586Z,3.00
2023-01-12T00:51:09.589Z,3.20
2023-01-12T00:51:19.567Z,3.40
2023-01-12T00:51:29.584Z,3.20
2023-01-12T00:51:39.606Z,2.80
2023-01-12T00:51:49.600Z,2.50
2023-01-12T00:51:59.566Z,3.50
2023-01-12T00:52:11.360Z,4.30
2023-01-12T00:52:30.018Z,4.70
2023-01-12T00:52:31.384Z,4.40
2023-01-12T00:52:39.568Z,4.30
2023-01-12T00:52:49.565Z,4.40
2023-01-12T00:52:59.586Z,4.30
2023-01-12T00:53:09.636Z,4.10
2023-01-12T00:53:19.566Z,4.40
2023-01-12T00:53:30.570Z,4.60
2023-01-12T00:53:39.575Z,5.00
2023-01-12T00:53:49.559Z,3.30
2023-01-12T00:53:59.559Z,5.80
2023-01-12T00:54:09.648Z,5.80
2023-01-12T00:54:19.575Z,5.40
2023-01-12T00:54:29.561Z,3.20
2023-01-12T00:54:39.559Z,3.50
2023-01-12T00:54:49.558Z,3.40
2023-01-12T00:54:59.848Z,4.70
2023-01-12T00:55:09.547Z,4.50
2023-01-12T00:55:19.570Z,4.60
2023-01-12T00:55:29.554Z,2.90
2023-01-12T00:55:39.556Z,3.00
2023-01-12T00:55:49.573Z,3.00
2023-01-12T00:55:59.567Z,3.50
2023-01-12T00:56:09.554Z,4.00
2023-01-12T00:56:19.556Z,4.10
2023-01-12T00:56:29.545Z,4.00
2023-01-12T00:56:39.551Z,3.30
2023-01-12T00:56:49.567Z,3.30
2023-01-12T00:56:59.573Z,3.50
2023-01-12T00:57:09.577Z,3.40
2023-01-12T00:57:19.542Z,2.90
2023-01-12T00:57:29.685Z,2.90
2023-01-12T00:57:39.546Z,3.80
2023-01-12T00:57:50.487Z,4.10
2023-01-12T00:57:59.537Z,3.90
2023-01-12T00:58:09.565Z,2.70
2023-01-12T00:58:19.606Z,2.60
2023-01-12T00:58:29.537Z,2.60
2023-01-12T00:58:39.537Z,2.70
2023-01-12T00:58:49.561Z,2.70
2023-01-12T00:58:59.545Z,2.80
2023-01-12T00:59:10.471Z,3.20
2023-01-12T00:59:19.558Z,4.10
2023-01-12T00:59:29.545Z,6.60
2023-01-12T00:59:39.561Z,9.10
2023-01-12T00:59:49.528Z,7.30
2023-01-12T00:59:59.542Z,4.50
2023-01-12T01:00:09.550Z,2.60
2023-01-12T01:00:19.533Z,2.40
2023-01-12T01:00:29.533Z,2.30
2023-01-12T01:00:39.538Z,2.60
2023-01-12T01:00:49.562Z,3.20
2023-01-12T01:00:59.538Z,3.40
2023-01-12T01:01:09.708Z,4.30
2023-01-12T01:01:19.629Z,4.10
2023-01-12T01:01:29.589Z,4.20
2023-01-12T01:01:39.709Z,2.80
2023-01-12T01:01:49.683Z,4.40
2023-01-12T01:01:59.654Z,3.90
2023-01-12T01:02:09.736Z,3.90
2023-01-12T01:02:19.643Z,2.60
2023-01-12T01:02:29.601Z,3.10
2023-01-12T01:02:39.564Z,4.10
2023-01-12T01:02:49.625Z,3.90
2023-01-12T01:02:59.563Z,4.00
2023-01-12T01:03:09.520Z,3.90
2023-01-12T01:03:19.552Z,3.90
2023-01-12T01:03:30.038Z,4.00
2023-01-12T01:03:39.526Z,3.20
2023-01-12T01:03:49.538Z,3.20
2023-01-12T01:03:59.531Z,2.80
2023-01-12T01:04:09.513Z,2.60
2023-01-12T01:04:19.530Z,2.60
2023-01-12T01:04:29.611Z,2.30
2023-01-12T01:04:39.511Z,2.30
2023-01-12T01:04:49.524Z,2.50
2023-01-12T01:04:59.510Z,2.60
2023-01-12T01:05:09.507Z,2.70
2023-01-12T01:05:19.513Z,6.10
2023-01-12T01:05:29.512Z,6.30
2023-01-12T01:05:39.528Z,6.50
2023-01-12T01:05:49.524Z,3.50
2023-01-12T01:05:59.500Z,3.70
2023-01-12T01:06:09.557Z,3.30
2023-01-12T01:06:19.527Z,3.10
2023-01-12T01:06:29.498Z,2.60
2023-01-12T01:06:39.503Z,2.90
2023-01-12T01:06:49.510Z,3.20
2023-01-12T01:06:59.533Z,3.40
2023-01-12T01:07:09.533Z,3.20
2023-01-12T01:07:19.493Z,3.10
2023-01-12T01:07:29.528Z,3.00
2023-01-12T01:07:39.634Z,2.70
2023-01-12T01:07:49.500Z,2.70
2023-01-12T01:07:59.499Z,3.90
2023-01-12T01:08:09.567Z,3.90
2023-01-12T01:08:19.491Z,3.80
2023-01-12T01:08:29.500Z,2.60
2023-01-12T01:08:39.560Z,2.90
2023-01-12T01:08:49.498Z,2.80
2023-01-12T01:08:59.500Z,2.70
2023-01-12T01:09:09.513Z,2.60
2023-01-12T01:09:19.493Z,2.80
2023-01-12T01:09:29.489Z,2.70
2023-01-12T01:09:39.507Z,4.20
2023-01-12T01:09:49.513Z,4.30
2023-01-12T01:09:59.511Z,4.30
2023-01-12T01:10:09.502Z,2.70
2023-01-12T01:10:20.623Z,2.50
2023-01-12T01:10:29.487Z,3.30
2023-01-12T01:10:39.485Z,3.00
2023-01-12T01:10:49.497Z,3.10
2023-01-12T01:10:59.481Z,2.40
2023-01-12T01:11:09.493Z,2.80
2023-01-12T01:11:19.501Z,2.70
2023-01-12T01:11:29.624Z,2.80
2023-01-12T01:11:39.478Z,2.60
2023-01-12T01:11:50.483Z,2.90
2023-01-12T01:11:59.504Z,2.90
2023-01-12T01:12:09.505Z,4.70
2023-01-12T01:12:19.518Z,4.80
2023-01-12T01:12:29.483Z,4.50
2023-01-12T01:12:39.483Z,3.50
2023-01-12T01:12:49.477Z,2.50
2023-01-12T01:12:59.493Z,2.80
2023-01-12T01:13:09.642Z,2.90
2023-01-12T01:13:19.504Z,4.10
2023-01-12T01:13:29.481Z,4.00
2023-01-12T01:13:39.471Z,4.00
2023-01-12T01:13:49.517Z,2.80
2023-01-12T01:13:59.567Z,7.60
2023-01-12T01:14:09.485Z,9.40
2023-01-12T01:14:19.476Z,9.00
2023-01-12T01:14:29.592Z,3.40
2023-01-12T01:14:39.470Z,4.10
2023-01-12T01:14:49.469Z,6.50
2023-01-12T01:14:59.466Z,7.10
2023-01-12T01:15:09.468Z,4.60
2023-01-12T01:15:19.475Z,3.90
2023-01-12T01:15:29.467Z,3.60
2023-01-12T01:15:39.485Z,4.20
2023-01-12T01:15:49.533Z,4.00
2023-01-12T01:15:59.515Z,4.10
2023-01-12T01:16:09.510Z,2.70
2023-01-12T01:16:19.487Z,2.70
2023-01-12T01:16:29.468Z,2.20
2023-01-12T01:16:39.480Z,2.50
2023-01-12T01:16:49.486Z,2.50
2023-01-12T01:16:59.482Z,3.80
2023-01-12T01:17:09.474Z,3.70
2023-01-12T01:17:19.483Z,3.70
2023-01-12T01:17:29.451Z,2.60
2023-01-12T01:17:39.469Z,2.90
2023-01-12T01:17:49.481Z,2.60
2023-01-12T01:17:59.455Z,2.60
2023-01-12T01:18:09.458Z,2.60
2023-01-12T01:18:19.978Z,2.50
2023-01-12T01:18:29.449Z,2.60
2023-01-12T01:18:39.475Z,2.40
2023-01-12T01:18:49.457Z,3.00
2023-01-12T01:18:59.498Z,2.60
2023-01-12T01:19:09.451Z,5.10
2023-01-12T01:19:19.453Z,5.00
2023-01-12T01:19:29.474Z,5.20
2023-01-12T01:19:39.473Z,3.00
2023-01-12T01:19:49.498Z,2.80
2023-01-12T01:19:59.439Z,2.90
2023-01-12T01:20:09.529Z,7.40
2023-01-12T01:20:19.455Z,7.50
2023-01-12T01:20:29.450Z,7.60
2023-01-12T01:20:39.442Z,3.00
2023-01-12T01:20:49.565Z,3.20
2023-01-12T01:20:59.450Z,3.70
2023-01-12T01:21:09.434Z,3.60
2023-01-12T01:21:19.468Z,3.80
2023-01-12T01:21:29.980Z,3.10
2023-01-12T01:21:39.431Z,3.10
2023-01-12T01:21:49.438Z,2.70
2023-01-12T01:21:59.441Z,4.30
2023-01-12T01:22:09.426Z,4.60
2023-01-12T01:22:19.454Z,4.60
2023-01-12T01:22:29.457Z,3.30
2023-01-12T01:22:39.435Z,2.80
2023-01-12T01:22:49.436Z,2.60
2023-01-12T01:22:59.438Z,2.10
2023-01-12T01:23:09.440Z,3.60
2023-01-12T01:23:19.423Z,3.70
2023-01-12T01:23:29.985Z,3.90
2023-01-12T01:23:39.439Z,2.90
2023-01-12T01:23:49.444Z,4.30
2023-01-12T01:23:59.421Z,4.10
2023-01-12T01:24:09.471Z,4.40
2023-01-12T01:24:19.493Z,2.40
2023-01-12T01:24:29.420Z,2.30
2023-01-12T01:24:39.456Z,4.30
2023-01-12T01:24:49.438Z,4.40
2023-01-12T01:24:59.432Z,4.60
2023-01-12T01:25:09.428Z,3.40
2023-01-12T01:25:19.423Z,3.20
2023-01-12T01:25:29.418Z,3.30
2023-01-12T01:25:39.445Z,4.00
2023-01-12T01:25:49.569Z,5.90
2023-01-12T01:25:59.427Z,6.30
2023-01-12T01:26:09.415Z,4.20
2023-01-12T01:26:19.447Z,3.20
2023-01-12T01:26:29.426Z,4.10
2023-01-12T01:26:39.426Z,4.10
2023-01-12T01:26:49.413Z,4.30
2023-01-12T01:26:59.427Z,3.80
2023-01-12T01:27:09.424Z,6.50
2023-01-12T01:27:19.431Z,6.60
2023-01-12T01:27:29.428Z,4.90
2023-01-12T01:27:39.976Z,2.80
2023-01-12T01:27:49.411Z,3.10
2023-01-12T01:27:59.415Z,3.00
2023-01-12T01:28:09.442Z,2.80
2023-01-12T01:28:19.535Z,2.40
2023-01-12T01:28:30.000Z,2.30
2023-01-12T01:28:39.398Z,2.60
2023-01-12T01:28:49.412Z,2.80
2023-01-12T01:28:59.407Z,3.20
2023-01-12T01:29:09.400Z,3.10
2023-01-12T01:29:19.476Z,3.40
2023-01-12T01:29:29.421Z,2.70
2023-01-12T01:29:39.971Z,2.40
2023-01-12T01:29:49.465Z,1.90
2023-01-12T01:29:59.399Z,2.60
2023-01-12T01:30:09.441Z,2.90
2023-01-12T01:30:19.392Z,3.00
2023-01-12T01:30:29.394Z,2.60
2023-01-12T01:30:39.388Z,2.80
2023-01-12T01:30:49.453Z,3.20
2023-01-12T01:31:00.006Z,3.30
2023-01-12T01:31:09.400Z,3.10
2023-01-12T01:31:19.524Z,2.70
2023-01-12T01:31:29.423Z,2.80
2023-01-12T01:31:39.398Z,2.80
2023-01-12T01:31:49.993Z,4.50
2023-01-12T01:31:59.414Z,4.40
2023-01-12T01:32:09.387Z,6.40
2023-01-12T01:32:19.388Z,4.00
2023-01-12T01:32:29.388Z,4.00
2023-01-12T01:32:39.409Z,2.40
2023-01-12T01:32:49.384Z,3.30
2023-01-12T01:32:59.383Z,3.70
2023-01-12T01:33:09.379Z,3.70
2023-01-12T01:33:19.397Z,2.60
2023-01-12T01:33:29.374Z,2.30
2023-01-12T01:33:39.386Z,2.40
2023-01-12T01:33:49.437Z,4.10
2023-01-12T01:33:59.399Z,4.10
2023-01-12T01:34:09.980Z,4.00
2023-01-12T01:34:19.393Z,3.00
2023-01-12T01:34:29.429Z,3.20
2023-01-12T01:34:39.421Z,4.60
2023-01-12T01:34:49.404Z,4.50
2023-01-12T01:34:59.378Z,4.10
2023-01-12T01:35:09.376Z,4.40
2023-01-12T01:35:19.377Z,4.60
2023-01-12T01:35:29.416Z,4.80
2023-01-12T01:35:39.370Z,2.40
2023-01-12T01:35:49.377Z,3.10
2023-01-12T01:35:59.390Z,3.10
2023-01-12T01:36:09.373Z,3.30
2023-01-12T01:36:19.367Z,4.00
2023-01-12T01:36:29.392Z,7.00
2023-01-12T01:36:39.368Z,7.10
2023-01-12T01:36:49.371Z,5.00
2023-01-12T01:36:59.390Z,2.70
2023-01-12T01:37:09.370Z,2.60
2023-01-12T01:37:19.361Z,2.70
2023-01-12T01:37:29.368Z,3.00
2023-01-12T01:37:39.364Z,2.70
2023-01-12T01:37:49.368Z,2.30
2023-01-12T01:37:59.370Z,2.70
2023-01-12T01:38:09.372Z,2.60
2023-01-12T01:38:19.413Z,2.40
2023-01-12T01:38:29.364Z,2.10
2023-01-12T01:38:39.355Z,2.60
2023-01-12T01:38:49.399Z,2.60
2023-01-12T01:38:59.366Z,5.60
2023-01-12T01:39:09.348Z,5.30
2023-01-12T01:39:19.353Z,5.30
2023-01-12T01:39:29.414Z,2.50
2023-01-12T01:39:39.475Z,2.60
2023-01-12T01:39:49.356Z,2.50
2023-01-12T01:39:59.356Z,2.20
2023-01-12T01:40:09.447Z,2.10
2023-01-12T01:40:19.349Z,2.40
2023-01-12T01:40:29.359Z,2.80
2023-01-12T01:40:39.355Z,3.20
2023-01-12T01:40:49.350Z,3.00
2023-01-12T01:40:59.359Z,2.70
2023-01-12T01:41:09.356Z,2.20
2023-01-12T01:41:19.353Z,2.70
2023-01-12T01:41:29.375Z,3.30
2023-01-12T01:41:40.184Z,3.50
2023-01-12T01:41:49.474Z,3.00
2023-01-12T01:41:59.366Z,4.30
2023-01-12T01:42:09.339Z,4.60
2023-01-12T01:42:19.349Z,4.80
2023-01-12T01:42:29.419Z,2.80
2023-01-12T01:42:39.359Z,2.40
2023-01-12T01:42:49.980Z,2.50
2023-01-12T01:42:59.340Z,2.80
2023-01-12T01:43:09.452Z,2.70
2023-01-12T01:43:19.361Z,3.00
2023-01-12T01:43:29.352Z,4.20
2023-01-12T01:43:39.977Z,4.50
2023-01-12T01:43:49.341Z,4.60
2023-01-12T01:43:59.336Z,4.90
2023-01-12T01:44:09.376Z,6.70
2023-01-12T01:44:19.330Z,6.70
2023-01-12T01:44:29.388Z,4.30
2023-01-12T01:44:39.364Z,4.20
2023-01-12T01:44:49.386Z,3.70
2023-01-12T01:44:59.338Z,3.90
2023-01-12T01:45:09.362Z,2.70
2023-01-12T01:45:19.388Z,3.00
2023-01-12T01:45:29.328Z,2.90
2023-01-12T01:45:39.333Z,5.50
2023-01-12T01:45:49.368Z,5.30
2023-01-12T01:45:59.973Z,5.50
2023-01-12T01:46:09.383Z,2.40
2023-01-12T01:46:19.339Z,2.60
2023-01-12T01:46:29.362Z,2.80
2023-01-12T01:46:40.068Z,4.70
2023-01-12T01:46:49.389Z,4.60
2023-01-12T01:46:59.317Z,4.50
2023-01-12T01:47:09.334Z,2.60
2023-01-12T01:47:19.338Z,4.10
2023-01-12T01:47:29.321Z,4.30
2023-01-12T01:47:39.329Z,4.40
2023-01-12T01:47:49.347Z,2.80
2023-01-12T01:47:59.317Z,2.60
2023-01-12T01:48:09.314Z,2.40
2023-01-12T01:48:19.322Z,3.70
2023-01-12T01:48:29.310Z,3.90
2023-01-12T01:48:39.307Z,3.80
2023-01-12T01:48:49.425Z,2.80
2023-01-12T01:48:59.307Z,2.70
2023-01-12T01:49:09.315Z,3.20
2023-01-12T01:49:19.322Z,2.80
2023-01-12T01:49:29.368Z,2.70
2023-01-12T01:49:39.315Z,2.60
2023-01-12T01:49:49.982Z,2.60
2023-01-12T01:49:59.400Z,2.70
2023-01-12T01:50:09.315Z,4.90
2023-01-12T01:50:19.411Z,5.00
2023-01-12T01:50:29.341Z,8.20
2023-01-12T01:50:39.333Z,5.40
2023-01-12T01:50:49.328Z,5.50
2023-01-12T01:50:59.340Z,2.80
2023-01-12T01:51:09.326Z,2.60
2023-01-12T01:51:19.303Z,2.40
2023-01-12T01:51:29.303Z,2.60
2023-01-12T01:51:39.305Z,2.60
2023-01-12T01:51:49.367Z,2.70
2023-01-12T01:51:59.304Z,4.20
2023-01-12T01:52:09.306Z,4.00
2023-01-12T01:52:19.300Z,3.80
2023-01-12T01:52:29.295Z,2.10
2023-01-12T01:52:39.296Z,2.60
2023-01-12T01:52:49.335Z,3.00
2023-01-12T01:52:59.993Z,3.30
2023-01-12T01:53:09.292Z,4.20
2023-01-12T01:53:19.298Z,4.10
2023-01-12T01:53:29.314Z,4.50
2023-01-12T01:53:40.025Z,3.30
2023-01-12T01:53:49.286Z,3.00
2023-01-12T01:53:59.312Z,2.50
2023-01-12T01:54:09.294Z,4.90
2023-01-12T01:54:19.291Z,4.70
2023-01-12T01:54:29.469Z,4.50
2023-01-12T01:54:39.289Z,2.10
2023-01-12T01:54:49.288Z,2.30
2023-01-12T01:54:59.352Z,2.60
2023-01-12T01:55:09.363Z,2.80
2023-01-12T01:55:19.300Z,2.80
2023-01-12T01:55:29.308Z,5.30
2023-01-12T01:55:39.281Z,5.50
2023-01-12T01:55:49.519Z,5.60
2023-01-12T01:55:59.307Z,4.30
2023-01-12T01:56:09.383Z,4.00
2023-01-12T01:56:19.299Z,3.80
2023-01-12T01:56:29.313Z,2.30
2023-01-12T01:56:39.304Z,2.40
2023-01-12T01:56:49.338Z,2.60
2023-01-12T01:56:59.983Z,2.30
2023-01-12T01:57:09.269Z,2.50
2023-01-12T01:57:20.009Z,2.40
2023-01-12T01:57:29.306Z,2.80
2023-01-12T01:57:39.334Z,2.60
2023-01-12T01:57:49.311Z,2.70
2023-01-12T01:57:59.274Z,2.60
2023-01-12T01:58:09.373Z,2.50
2023-01-12T01:58:19.308Z,2.30
2023-01-12T01:58:29.294Z,2.20
2023-01-12T01:58:39.271Z,2.40
2023-01-12T01:58:49.264Z,2.50
2023-01-12T01:58:59.287Z,2.70
2023-01-12T01:59:09.267Z,2.70
2023-01-12T01:59:19.350Z,2.60
2023-01-12T01:59:29.272Z,2.60
2023-01-12T01:59:39.281Z,2.20
2023-01-12T01:59:49.276Z,2.10
2023-01-12T01:59:59.266Z,1.90
2023-01-12T02:00:09.273Z,2.30
2023-01-12T02:00:19.451Z,2.60
2023-01-12T02:00:29.300Z,3.50
2023-01-12T02:00:39.297Z,3.50
2023-01-12T02:00:49.310Z,3.10
2023-01-12T02:00:59.335Z,2.30
2023-01-12T02:01:09.386Z,2.50
2023-01-12T02:01:19.366Z,3.10
2023-01-12T02:01:29.449Z,3.10
2023-01-12T02:01:39.402Z,3.30
2023-01-12T02:01:49.294Z,2.90
2023-01-12T02:01:59.351Z,5.20
2023-01-12T02:02:09.282Z,5.20
2023-01-12T02:02:19.310Z,7.10
2023-01-12T02:02:29.287Z,4.00
2023-01-12T02:02:39.368Z,3.90
2023-01-12T02:02:49.327Z,2.50
2023-01-12T02:02:59.347Z,2.60
2023-01-12T02:03:09.303Z,2.70
2023-01-12T02:03:19.320Z,2.40
2023-01-12T02:03:30.570Z,2.90
2023-01-12T02:03:39.253Z,2.60
2023-01-12T02:03:49.241Z,2.80
2023-01-12T02:03:59.247Z,2.30
2023-01-12T02:04:09.247Z,2.40
2023-01-12T02:04:19.293Z,2.00
2023-01-12T02:04:29.236Z,2.30
2023-01-12T02:04:39.251Z,2.10
2023-01-12T02:04:50.001Z,2.50
2023-01-12T02:04:59.242Z,3.10
2023-01-12T02:05:09.250Z,3.60
2023-01-12T02:05:19.327Z,3.20
2023-01-12T02:05:29.276Z,2.40
2023-01-12T02:05:39.259Z,2.20
2023-01-12T02:05:49.294Z,2.30
2023-01-12T02:05:59.226Z,6.10
2023-01-12T02:06:09.280Z,6.00
2023-01-12T02:06:19.303Z,5.80
2023-01-12T02:06:29.275Z,2.50
2023-01-12T02:06:39.989Z,2.60
2023-01-12T02:06:49.248Z,2.40
2023-01-12T02:06:59.254Z,2.60
2023-01-12T02:07:09.271Z,2.40
2023-01-12T02:07:19.411Z,4.10
2023-01-12T02:07:29.244Z,4.20
2023-01-12T02:07:39.289Z,4.20
2023-01-12T02:07:49.419Z,2.30
2023-01-12T02:07:59.229Z,2.20
2023-01-12T02:08:09.227Z,2.20
2023-01-12T02:08:19.248Z,2.30
2023-01-12T02:08:29.283Z,2.20
2023-01-12T02:08:39.215Z,2.20
2023-01-12T02:08:49.236Z,2.10
2023-01-12T02:08:59.239Z,2.20
2023-01-12T02:09:09.228Z,2.20
2023-01-12T02:09:19.244Z,2.60
2023-01-12T02:09:29.313Z,2.80
2023-01-12T02:09:39.229Z,2.80
2023-01-12T02:09:49.217Z,2.70
2023-01-12T02:09:59.245Z,2.50
2023-01-12T02:10:09.223Z,2.50
2023-01-12T02:10:19.239Z,2.00
2023-01-12T02:10:29.275Z,2.20
2023-01-12T02:10:39.412Z,2.10
2023-01-12T02:10:49.212Z,2.30
2023-01-12T02:10:59.248Z,2.40
2023-01-12T02:11:09.206Z,2.70
2023-01-12T02:11:19.267Z,2.70
2023-01-12T02:11:29.221Z,2.40
2023-01-12T02:11:39.215Z,2.00
2023-01-12T02:11:49.224Z,2.30
2023-01-12T02:11:59.208Z,2.70
2023-01-12T02:12:09.207Z,2.80
2023-01-12T02:12:19.230Z,2.70
2023-01-12T02:12:29.212Z,2.40
2023-01-12T02:12:40.008Z,2.10
2023-01-12T02:12:49.262Z,1.90
2023-01-12T02:12:59.213Z,2.50
2023-01-12T02:13:09.231Z,2.70